sensor_id;sensor_type;location;lat;lon;timestamp;pressure;altitude;pressure_sealevel;temperature;humidity
59493;BME280;45497;43.996;22.876;2023-01-28T00:01:44;100866.47;;;5.33;60.01
59493;BME280;45497;43.996;22.876;2023-01-28T00:04:10;100865.63;;;5.33;59.69
59493;BME280;45497;43.996;22.876;2023-01-28T00:06:35;100860.06;;;5.26;59.98
59493;BME280;45497;43.996;22.876;2023-01-28T00:09:02;100874.47;;;5.32;59.98
59493;BME280;45497;43.996;22.876;2023-01-28T00:11:28;100875.31;;;5.32;59.74
59493;BME280;45497;43.996;22.876;2023-01-28T00:13:53;100876.13;;;5.33;59.69
59493;BME280;45497;43.996;22.876;2023-01-28T00:16:20;100873.66;;;5.31;59.91
59493;BME280;45497;43.996;22.876;2023-01-28T00:18:47;100881.53;;;5.31;59.61
59493;BME280;45497;43.996;22.876;2023-01-28T00:21:14;100880.34;;;5.14;59.66
59493;BME280;45497;43.996;22.876;2023-01-28T00:23:42;100887.03;;;4.97;59.79
59493;BME280;45497;43.996;22.876;2023-01-28T00:26:12;100891.84;;;4.92;60.24
59493;BME280;45497;43.996;22.876;2023-01-28T00:28:39;100891.34;;;4.77;60.63
59493;BME280;45497;43.996;22.876;2023-01-28T00:31:13;100895.69;;;4.67;60.79
59493;BME280;45497;43.996;22.876;2023-01-28T00:33:40;100890.53;;;4.66;60.71
59493;BME280;45497;43.996;22.876;2023-01-28T00:36:06;100898.94;;;4.81;61.06
59493;BME280;45497;43.996;22.876;2023-01-28T00:38:32;100890.63;;;4.75;60.59
59493;BME280;45497;43.996;22.876;2023-01-28T00:41:11;100896.00;;;4.74;60.65
59493;BME280;45497;43.996;22.876;2023-01-28T00:43:38;100896.84;;;4.74;60.91
59493;BME280;45497;43.996;22.876;2023-01-28T00:46:04;100899.72;;;4.71;61.00
59493;BME280;45497;43.996;22.876;2023-01-28T00:48:32;100893.69;;;4.59;60.46
59493;BME280;45497;43.996;22.876;2023-01-28T00:50:57;100897.03;;;4.62;61.03
59493;BME280;45497;43.996;22.876;2023-01-28T00:53:23;100899.53;;;4.63;61.09
59493;BME280;45497;43.996;22.876;2023-01-28T00:55:48;100911.06;;;4.72;60.59
59493;BME280;45497;43.996;22.876;2023-01-28T00:58:14;100909.84;;;4.76;60.65
59493;BME280;45497;43.996;22.876;2023-01-28T01:00:39;100911.38;;;4.78;60.17
59493;BME280;45497;43.996;22.876;2023-01-28T01:03:05;100911.06;;;4.72;60.52
59493;BME280;45497;43.996;22.876;2023-01-28T01:05:30;100906.06;;;4.69;60.57
59493;BME280;45497;43.996;22.876;2023-01-28T01:07:58;100915.47;;;4.71;60.39
59493;BME280;45497;43.996;22.876;2023-01-28T01:10:23;100912.00;;;4.71;60.28
59493;BME280;45497;43.996;22.876;2023-01-28T01:12:49;100911.66;;;4.75;60.26
59493;BME280;45497;43.996;22.876;2023-01-28T01:15:16;100900.56;;;4.72;60.22
59493;BME280;45497;43.996;22.876;2023-01-28T01:17:44;100907.91;;;4.78;60.28
59493;BME280;45497;43.996;22.876;2023-01-28T01:20:22;100910.53;;;4.78;60.14
59493;BME280;45497;43.996;22.876;2023-01-28T01:22:47;100908.88;;;4.77;60.46
59493;BME280;45497;43.996;22.876;2023-01-28T01:25:15;100913.28;;;4.76;59.97
59493;BME280;45497;43.996;22.876;2023-01-28T01:27:41;100922.78;;;4.89;60.03
59493;BME280;45497;43.996;22.876;2023-01-28T01:30:08;100915.22;;;4.95;60.11
59493;BME280;45497;43.996;22.876;2023-01-28T01:32:35;100918.44;;;4.99;59.58
59493;BME280;45497;43.996;22.876;2023-01-28T01:35:01;100926.44;;;4.97;60.02
59493;BME280;45497;43.996;22.876;2023-01-28T01:37:28;100927.50;;;4.95;59.61
59493;BME280;45497;43.996;22.876;2023-01-28T01:39:54;100924.63;;;4.98;59.64
59493;BME280;45497;43.996;22.876;2023-01-28T01:42:19;100927.38;;;4.96;59.79
59493;BME280;45497;43.996;22.876;2023-01-28T01:52:56;100916.31;;;4.93;59.38
59493;BME280;45497;43.996;22.876;2023-01-28T01:55:26;100922.56;;;4.81;59.72
59493;BME280;45497;43.996;22.876;2023-01-28T02:00:41;100928.56;;;4.83;59.56
59493;BME280;45497;43.996;22.876;2023-01-28T02:03:08;100929.75;;;4.78;59.44
59493;BME280;45497;43.996;22.876;2023-01-28T02:05:33;100932.19;;;4.70;59.44
59493;BME280;45497;43.996;22.876;2023-01-28T02:07:59;100929.28;;;4.52;59.89
59493;BME280;45497;43.996;22.876;2023-01-28T02:10:58;100938.75;;;4.44;59.65
59493;BME280;45497;43.996;22.876;2023-01-28T02:13:28;100944.34;;;4.50;59.39
59493;BME280;45497;43.996;22.876;2023-01-28T02:15:57;100951.13;;;4.53;59.83
59493;BME280;45497;43.996;22.876;2023-01-28T02:18:24;100942.03;;;4.57;59.24
59493;BME280;45497;43.996;22.876;2023-01-28T02:21:09;100951.75;;;4.66;59.10
59493;BME280;45497;43.996;22.876;2023-01-28T02:23:54;100939.09;;;4.71;59.23
59493;BME280;45497;43.996;22.876;2023-01-28T02:31:36;100939.50;;;4.67;58.94
59493;BME280;45497;43.996;22.876;2023-01-28T02:39:12;100947.06;;;4.49;58.67
59493;BME280;45497;43.996;22.876;2023-01-28T02:41:45;100950.41;;;4.51;59.23
59493;BME280;45497;43.996;22.876;2023-01-28T02:44:13;100937.03;;;4.54;58.79
59493;BME280;45497;43.996;22.876;2023-01-28T02:46:38;100945.09;;;4.62;58.73
59493;BME280;45497;43.996;22.876;2023-01-28T02:49:27;100941.72;;;4.71;58.84
59493;BME280;45497;43.996;22.876;2023-01-28T02:54:44;100949.00;;;4.79;58.43
59493;BME280;45497;43.996;22.876;2023-01-28T03:00:17;100944.94;;;4.75;58.54
59493;BME280;45497;43.996;22.876;2023-01-28T03:05:40;100956.19;;;4.66;58.61
59493;BME280;45497;43.996;22.876;2023-01-28T03:08:33;100950.13;;;4.65;58.11
59493;BME280;45497;43.996;22.876;2023-01-28T03:11:18;100954.38;;;4.66;58.51
59493;BME280;45497;43.996;22.876;2023-01-28T03:14:03;100943.69;;;4.58;58.18
59493;BME280;45497;43.996;22.876;2023-01-28T03:16:49;100952.69;;;4.44;58.31
59493;BME280;45497;43.996;22.876;2023-01-28T03:19:35;100957.94;;;4.44;58.09
59493;BME280;45497;43.996;22.876;2023-01-28T03:22:20;100949.25;;;4.44;58.44
59493;BME280;45497;43.996;22.876;2023-01-28T03:25:05;100959.84;;;4.42;58.24
59493;BME280;45497;43.996;22.876;2023-01-28T03:28:00;100956.13;;;4.45;58.49
59493;BME280;45497;43.996;22.876;2023-01-28T03:30:54;100952.97;;;4.30;57.99
59493;BME280;45497;43.996;22.876;2023-01-28T03:33:41;100968.56;;;4.43;58.21
59493;BME280;45497;43.996;22.876;2023-01-28T03:36:25;100969.13;;;4.46;58.01
59493;BME280;45497;43.996;22.876;2023-01-28T03:39:09;100961.53;;;4.43;57.91
59493;BME280;45497;43.996;22.876;2023-01-28T03:41:35;100959.97;;;4.40;58.10
59493;BME280;45497;43.996;22.876;2023-01-28T03:44:00;100968.44;;;4.44;58.19
59493;BME280;45497;43.996;22.876;2023-01-28T03:46:44;100971.06;;;4.44;58.18
59493;BME280;45497;43.996;22.876;2023-01-28T03:49:10;100976.31;;;4.44;57.69
59493;BME280;45497;43.996;22.876;2023-01-28T03:51:35;100966.88;;;4.53;57.48
59493;BME280;45497;43.996;22.876;2023-01-28T03:54:00;100975.78;;;4.62;57.77
59493;BME280;45497;43.996;22.876;2023-01-28T03:56:26;100971.59;;;4.59;57.83
59493;BME280;45497;43.996;22.876;2023-01-28T03:58:56;100973.88;;;4.64;57.48
59493;BME280;45497;43.996;22.876;2023-01-28T04:01:22;100968.75;;;4.62;57.92
59493;BME280;45497;43.996;22.876;2023-01-28T04:03:47;100980.22;;;4.61;57.77
59493;BME280;45497;43.996;22.876;2023-01-28T04:06:13;100973.66;;;4.55;57.97
59493;BME280;45497;43.996;22.876;2023-01-28T04:08:39;100985.00;;;4.56;57.71
59493;BME280;45497;43.996;22.876;2023-01-28T04:11:04;100979.41;;;4.49;57.78
59493;BME280;45497;43.996;22.876;2023-01-28T04:13:44;100988.56;;;4.55;57.48
59493;BME280;45497;43.996;22.876;2023-01-28T04:16:11;100991.06;;;4.56;57.70
59493;BME280;45497;43.996;22.876;2023-01-28T04:18:37;100986.34;;;4.50;57.51
59493;BME280;45497;43.996;22.876;2023-01-28T04:21:03;100996.56;;;4.53;57.42
59493;BME280;45497;43.996;22.876;2023-01-28T04:23:28;101005.38;;;4.64;57.47
59493;BME280;45497;43.996;22.876;2023-01-28T04:25:54;100998.25;;;4.54;57.18
59493;BME280;45497;43.996;22.876;2023-01-28T04:28:20;101007.78;;;4.55;57.40
59493;BME280;45497;43.996;22.876;2023-01-28T04:30:45;101003.09;;;4.59;57.30
59493;BME280;45497;43.996;22.876;2023-01-28T04:33:11;101013.63;;;4.59;57.65
59493;BME280;45497;43.996;22.876;2023-01-28T04:35:37;101012.31;;;4.65;57.39
59493;BME280;45497;43.996;22.876;2023-01-28T04:38:02;101018.50;;;4.64;57.42
59493;BME280;45497;43.996;22.876;2023-01-28T04:40:28;101019.59;;;4.61;57.65
59493;BME280;45497;43.996;22.876;2023-01-28T04:42:54;101010.75;;;4.62;57.44
59493;BME280;45497;43.996;22.876;2023-01-28T04:45:20;101016.00;;;4.62;57.39
59493;BME280;45497;43.996;22.876;2023-01-28T04:47:46;101033.63;;;4.71;57.56
59493;BME280;45497;43.996;22.876;2023-01-28T04:50:12;101031.88;;;4.72;56.89
59493;BME280;45497;43.996;22.876;2023-01-28T04:52:37;101036.03;;;4.74;57.17
59493;BME280;45497;43.996;22.876;2023-01-28T04:55:03;101034.09;;;4.76;57.27
59493;BME280;45497;43.996;22.876;2023-01-28T04:57:29;101044.47;;;4.78;57.11
59493;BME280;45497;43.996;22.876;2023-01-28T04:59:54;101041.28;;;4.74;57.38
59493;BME280;45497;43.996;22.876;2023-01-28T05:02:20;101038.66;;;4.74;56.97
59493;BME280;45497;43.996;22.876;2023-01-28T05:04:45;101039.75;;;4.72;57.21
59493;BME280;45497;43.996;22.876;2023-01-28T05:07:11;101038.88;;;4.71;56.96
59493;BME280;45497;43.996;22.876;2023-01-28T05:09:36;101037.59;;;4.66;57.39
59493;BME280;45497;43.996;22.876;2023-01-28T05:12:02;101040.94;;;4.68;57.43
59493;BME280;45497;43.996;22.876;2023-01-28T05:14:28;101035.78;;;4.66;57.31
59493;BME280;45497;43.996;22.876;2023-01-28T05:16:53;101042.38;;;4.72;56.95
59493;BME280;45497;43.996;22.876;2023-01-28T05:19:19;101044.53;;;4.67;56.99
59493;BME280;45497;43.996;22.876;2023-01-28T05:21:44;101049.78;;;4.67;56.98
59493;BME280;45497;43.996;22.876;2023-01-28T05:24:10;101048.69;;;4.69;56.91
59493;BME280;45497;43.996;22.876;2023-01-28T05:26:36;101054.53;;;4.73;56.63
59493;BME280;45497;43.996;22.876;2023-01-28T05:29:02;101045.69;;;4.74;56.99
59493;BME280;45497;43.996;22.876;2023-01-28T05:31:27;101042.59;;;4.69;57.17
59493;BME280;45497;43.996;22.876;2023-01-28T05:33:53;101044.25;;;4.70;56.75
59493;BME280;45497;43.996;22.876;2023-01-28T05:36:19;101042.72;;;4.67;56.80
59493;BME280;45497;43.996;22.876;2023-01-28T05:38:44;101040.72;;;4.59;56.85
59493;BME280;45497;43.996;22.876;2023-01-28T05:41:10;101045.00;;;4.60;56.91
59493;BME280;45497;43.996;22.876;2023-01-28T05:43:35;101056.69;;;4.68;56.82
59493;BME280;45497;43.996;22.876;2023-01-28T05:46:01;101062.63;;;4.70;56.68
59493;BME280;45497;43.996;22.876;2023-01-28T05:48:26;101063.69;;;4.78;57.09
59493;BME280;45497;43.996;22.876;2023-01-28T05:50:52;101060.94;;;4.80;56.42
59493;BME280;45497;43.996;22.876;2023-01-28T05:53:17;101061.34;;;4.75;56.43
59493;BME280;45497;43.996;22.876;2023-01-28T05:55:47;101067.88;;;4.81;56.75
59493;BME280;45497;43.996;22.876;2023-01-28T05:58:12;101063.47;;;4.82;56.54
59493;BME280;45497;43.996;22.876;2023-01-28T06:00:37;101064.75;;;4.87;56.48
59493;BME280;45497;43.996;22.876;2023-01-28T06:03:03;101075.97;;;4.89;56.35
59493;BME280;45497;43.996;22.876;2023-01-28T06:05:28;101071.94;;;4.85;56.62
59493;BME280;45497;43.996;22.876;2023-01-28T06:07:54;101075.38;;;4.86;56.78
59493;BME280;45497;43.996;22.876;2023-01-28T06:10:19;101077.88;;;4.87;56.33
59493;BME280;45497;43.996;22.876;2023-01-28T06:12:45;101076.47;;;4.83;56.98
59493;BME280;45497;43.996;22.876;2023-01-28T06:15:11;101085.19;;;4.84;56.56
59493;BME280;45497;43.996;22.876;2023-01-28T06:17:36;101087.81;;;4.84;56.63
59493;BME280;45497;43.996;22.876;2023-01-28T06:20:02;101095.22;;;4.90;56.33
59493;BME280;45497;43.996;22.876;2023-01-28T06:22:28;101098.53;;;4.92;56.76
59493;BME280;45497;43.996;22.876;2023-01-28T06:24:53;101091.72;;;4.89;56.49
59493;BME280;45497;43.996;22.876;2023-01-28T06:27:19;101097.84;;;4.90;56.56
59493;BME280;45497;43.996;22.876;2023-01-28T06:29:44;101093.28;;;4.92;56.55
59493;BME280;45497;43.996;22.876;2023-01-28T06:32:10;101096.22;;;4.98;56.30
59493;BME280;45497;43.996;22.876;2023-01-28T06:34:35;101096.50;;;4.95;56.50
59493;BME280;45497;43.996;22.876;2023-01-28T06:37:01;101100.19;;;4.93;56.62
59493;BME280;45497;43.996;22.876;2023-01-28T06:39:28;101101.41;;;4.89;56.91
59493;BME280;45497;43.996;22.876;2023-01-28T06:41:56;101103.44;;;4.85;56.79
59493;BME280;45497;43.996;22.876;2023-01-28T06:44:21;101099.28;;;4.83;57.13
59493;BME280;45497;43.996;22.876;2023-01-28T06:46:48;101110.63;;;4.83;57.01
59493;BME280;45497;43.996;22.876;2023-01-28T06:49:13;101110.22;;;4.88;56.71
59493;BME280;45497;43.996;22.876;2023-01-28T06:51:39;101114.03;;;4.95;56.90
59493;BME280;45497;43.996;22.876;2023-01-28T06:54:04;101115.72;;;4.96;56.50
59493;BME280;45497;43.996;22.876;2023-01-28T06:56:30;101109.16;;;4.90;56.63
59493;BME280;45497;43.996;22.876;2023-01-28T06:58:55;101114.19;;;4.93;56.66
59493;BME280;45497;43.996;22.876;2023-01-28T07:01:21;101120.63;;;4.89;56.83
59493;BME280;45497;43.996;22.876;2023-01-28T07:03:46;101131.47;;;4.96;56.73
59493;BME280;45497;43.996;22.876;2023-01-28T07:06:12;101127.16;;;4.95;56.87
59493;BME280;45497;43.996;22.876;2023-01-28T07:08:37;101128.03;;;4.95;56.59
59493;BME280;45497;43.996;22.876;2023-01-28T07:11:04;101135.53;;;5.00;56.87
59493;BME280;45497;43.996;22.876;2023-01-28T07:13:29;101136.09;;;5.04;57.00
59493;BME280;45497;43.996;22.876;2023-01-28T07:15:55;101135.63;;;5.10;56.80
59493;BME280;45497;43.996;22.876;2023-01-28T07:18:39;101137.41;;;5.09;57.07
59493;BME280;45497;43.996;22.876;2023-01-28T07:21:04;101144.34;;;5.10;56.49
59493;BME280;45497;43.996;22.876;2023-01-28T07:23:30;101142.19;;;5.15;56.59
59493;BME280;45497;43.996;22.876;2023-01-28T07:26:03;101134.06;;;5.07;56.60
59493;BME280;45497;43.996;22.876;2023-01-28T07:28:28;101133.13;;;5.08;57.13
59493;BME280;45497;43.996;22.876;2023-01-28T07:30:54;101144.09;;;5.13;57.17
59493;BME280;45497;43.996;22.876;2023-01-28T07:33:20;101152.69;;;5.15;57.04
59493;BME280;45497;43.996;22.876;2023-01-28T07:35:46;101149.09;;;5.16;56.88
59493;BME280;45497;43.996;22.876;2023-01-28T07:38:12;101163.09;;;5.17;56.83
59493;BME280;45497;43.996;22.876;2023-01-28T07:40:37;101149.25;;;5.04;56.55
59493;BME280;45497;43.996;22.876;2023-01-28T07:43:03;101149.28;;;4.92;56.46
59493;BME280;45497;43.996;22.876;2023-01-28T07:45:29;101152.72;;;4.93;56.43
59493;BME280;45497;43.996;22.876;2023-01-28T07:48:01;101161.31;;;4.95;56.25
59493;BME280;45497;43.996;22.876;2023-01-28T07:50:29;101167.31;;;4.86;56.80
59493;BME280;45497;43.996;22.876;2023-01-28T07:52:55;101174.47;;;4.84;56.48
59493;BME280;45497;43.996;22.876;2023-01-28T07:55:21;101163.03;;;4.85;56.57
59493;BME280;45497;43.996;22.876;2023-01-28T07:57:52;101169.34;;;4.93;57.21
59493;BME280;45497;43.996;22.876;2023-01-28T08:00:19;101170.28;;;4.92;56.78
59493;BME280;45497;43.996;22.876;2023-01-28T08:02:45;101170.41;;;4.91;56.43
59493;BME280;45497;43.996;22.876;2023-01-28T08:05:21;101175.44;;;4.94;56.52
59493;BME280;45497;43.996;22.876;2023-01-28T08:07:47;101176.38;;;5.04;56.80
59493;BME280;45497;43.996;22.876;2023-01-28T08:10:14;101181.22;;;5.20;57.06
59493;BME280;45497;43.996;22.876;2023-01-28T08:12:49;101177.41;;;5.24;57.06
59493;BME280;45497;43.996;22.876;2023-01-28T08:15:15;101179.84;;;5.05;56.84
59493;BME280;45497;43.996;22.876;2023-01-28T08:17:40;101184.84;;;5.08;56.51
59493;BME280;45497;43.996;22.876;2023-01-28T08:20:06;101189.25;;;5.07;56.92
59493;BME280;45497;43.996;22.876;2023-01-28T08:22:31;101186.63;;;5.07;56.81
59493;BME280;45497;43.996;22.876;2023-01-28T08:24:57;101196.53;;;5.04;56.45
59493;BME280;45497;43.996;22.876;2023-01-28T08:27:22;101190.34;;;5.05;56.75
59493;BME280;45497;43.996;22.876;2023-01-28T08:29:48;101191.16;;;5.05;57.17
59493;BME280;45497;43.996;22.876;2023-01-28T08:32:13;101201.53;;;5.18;57.11
59493;BME280;45497;43.996;22.876;2023-01-28T08:34:39;101203.56;;;5.14;56.80
59493;BME280;45497;43.996;22.876;2023-01-28T08:37:04;101196.78;;;5.12;56.65
59493;BME280;45497;43.996;22.876;2023-01-28T08:39:30;101204.63;;;5.23;56.53
59493;BME280;45497;43.996;22.876;2023-01-28T08:41:56;101200.56;;;5.30;57.12
59493;BME280;45497;43.996;22.876;2023-01-28T08:44:21;101203.88;;;5.32;56.70
59493;BME280;45497;43.996;22.876;2023-01-28T08:46:46;101208.19;;;5.33;56.49
59493;BME280;45497;43.996;22.876;2023-01-28T08:49:12;101207.97;;;5.25;56.59
59493;BME280;45497;43.996;22.876;2023-01-28T08:51:37;101205.34;;;5.25;56.94
59493;BME280;45497;43.996;22.876;2023-01-28T08:54:03;101215.38;;;5.20;57.31
59493;BME280;45497;43.996;22.876;2023-01-28T08:56:28;101221.25;;;5.12;57.21
59493;BME280;45497;43.996;22.876;2023-01-28T08:58:54;101211.31;;;5.27;57.20
59493;BME280;45497;43.996;22.876;2023-01-28T09:01:20;101219.03;;;5.40;56.92
59493;BME280;45497;43.996;22.876;2023-01-28T09:03:45;101226.34;;;5.36;57.06
59493;BME280;45497;43.996;22.876;2023-01-28T09:06:11;101217.63;;;5.36;57.10
59493;BME280;45497;43.996;22.876;2023-01-28T09:08:36;101217.84;;;5.33;57.49
59493;BME280;45497;43.996;22.876;2023-01-28T09:11:02;101216.16;;;5.43;57.69
59493;BME280;45497;43.996;22.876;2023-01-28T09:13:28;101218.16;;;5.51;57.32
59493;BME280;45497;43.996;22.876;2023-01-28T09:15:54;101222.25;;;5.55;57.03
59493;BME280;45497;43.996;22.876;2023-01-28T09:18:20;101228.41;;;5.65;57.57
59493;BME280;45497;43.996;22.876;2023-01-28T09:20:46;101229.63;;;5.61;56.96
59493;BME280;45497;43.996;22.876;2023-01-28T09:23:12;101220.44;;;5.55;56.80
59493;BME280;45497;43.996;22.876;2023-01-28T09:25:38;101233.94;;;5.62;57.21
59493;BME280;45497;43.996;22.876;2023-01-28T09:28:04;101224.59;;;5.58;57.15
59493;BME280;45497;43.996;22.876;2023-01-28T09:30:30;101233.34;;;5.59;57.71
59493;BME280;45497;43.996;22.876;2023-01-28T09:32:56;101229.38;;;5.64;57.43
59493;BME280;45497;43.996;22.876;2023-01-28T09:35:24;101232.19;;;5.72;56.81
59493;BME280;45497;43.996;22.876;2023-01-28T09:37:50;101234.41;;;5.56;57.30
59493;BME280;45497;43.996;22.876;2023-01-28T09:40:20;101232.84;;;5.65;57.25
59493;BME280;45497;43.996;22.876;2023-01-28T09:45:38;101223.47;;;5.72;57.20
59493;BME280;45497;43.996;22.876;2023-01-28T09:48:07;101217.41;;;5.71;57.29
59493;BME280;45497;43.996;22.876;2023-01-28T09:50:37;101219.03;;;5.72;57.45
59493;BME280;45497;43.996;22.876;2023-01-28T09:53:31;101222.25;;;5.76;57.40
59493;BME280;45497;43.996;22.876;2023-01-28T09:58:36;101227.03;;;5.82;57.29
59493;BME280;45497;43.996;22.876;2023-01-28T10:06:51;101215.69;;;5.82;57.33
59493;BME280;45497;43.996;22.876;2023-01-28T10:09:25;101218.28;;;5.61;56.63
59493;BME280;45497;43.996;22.876;2023-01-28T10:17:44;101207.16;;;5.57;56.93
59493;BME280;45497;43.996;22.876;2023-01-28T10:25:18;101202.84;;;5.67;57.01
59493;BME280;45497;43.996;22.876;2023-01-28T10:27:46;101203.59;;;5.47;57.63
59493;BME280;45497;43.996;22.876;2023-01-28T10:30:24;101207.88;;;5.59;57.30
59493;BME280;45497;43.996;22.876;2023-01-28T10:35:20;101200.22;;;5.88;56.78
59493;BME280;45497;43.996;22.876;2023-01-28T10:37:45;101200.66;;;5.93;56.77
59493;BME280;45497;43.996;22.876;2023-01-28T10:40:16;101206.44;;;5.87;56.49
59493;BME280;45497;43.996;22.876;2023-01-28T10:42:43;101201.88;;;5.89;56.46
59493;BME280;45497;43.996;22.876;2023-01-28T10:45:28;101204.47;;;6.01;56.86
59493;BME280;45497;43.996;22.876;2023-01-28T10:50:26;101202.53;;;5.49;57.06
59493;BME280;45497;43.996;22.876;2023-01-28T10:53:03;101204.59;;;5.67;56.55
59493;BME280;45497;43.996;22.876;2023-01-28T10:55:36;101195.97;;;5.44;57.43
59493;BME280;45497;43.996;22.876;2023-01-28T10:58:22;101201.09;;;5.57;57.23
59493;BME280;45497;43.996;22.876;2023-01-28T11:00:53;101204.03;;;5.63;57.19
59493;BME280;45497;43.996;22.876;2023-01-28T11:03:22;101194.91;;;5.46;56.65
59493;BME280;45497;43.996;22.876;2023-01-28T11:05:52;101209.56;;;5.60;56.68
59493;BME280;45497;43.996;22.876;2023-01-28T11:08:19;101197.13;;;5.62;56.86
59493;BME280;45497;43.996;22.876;2023-01-28T11:10:45;101199.75;;;5.62;56.38
59493;BME280;45497;43.996;22.876;2023-01-28T11:13:29;101194.59;;;5.61;56.44
59493;BME280;45497;43.996;22.876;2023-01-28T11:16:01;101196.13;;;5.63;57.18
59493;BME280;45497;43.996;22.876;2023-01-28T11:18:30;101193.25;;;5.66;56.36
59493;BME280;45497;43.996;22.876;2023-01-28T11:21:00;101202.53;;;5.49;56.41
59493;BME280;45497;43.996;22.876;2023-01-28T11:23:30;101198.56;;;5.55;57.00
59493;BME280;45497;43.996;22.876;2023-01-28T11:26:00;101202.56;;;5.70;56.94
59493;BME280;45497;43.996;22.876;2023-01-28T11:28:27;101196.28;;;5.83;56.69
59493;BME280;45497;43.996;22.876;2023-01-28T11:30:53;101201.63;;;5.71;56.73
59493;BME280;45497;43.996;22.876;2023-01-28T11:33:36;101197.13;;;5.83;56.74
59493;BME280;45497;43.996;22.876;2023-01-28T11:36:16;101200.59;;;5.84;56.38
59493;BME280;45497;43.996;22.876;2023-01-28T11:38:52;101188.47;;;5.71;56.90
59493;BME280;45497;43.996;22.876;2023-01-28T11:41:34;101192.84;;;5.82;56.97
59493;BME280;45497;43.996;22.876;2023-01-28T11:44:23;101188.78;;;5.78;56.46
59493;BME280;45497;43.996;22.876;2023-01-28T11:47:11;101185.19;;;5.79;56.68
59493;BME280;45497;43.996;22.876;2023-01-28T11:50:46;101182.31;;;5.82;57.07
59493;BME280;45497;43.996;22.876;2023-01-28T11:52:59;101188.25;;;5.96;56.25
59493;BME280;45497;43.996;22.876;2023-01-28T11:56:34;101189.38;;;5.82;56.48
59493;BME280;45497;43.996;22.876;2023-01-28T11:58:53;101183.38;;;5.80;56.25
59493;BME280;45497;43.996;22.876;2023-01-28T12:01:27;101190.13;;;5.93;56.72
59493;BME280;45497;43.996;22.876;2023-01-28T12:04:21;101191.44;;;5.99;56.21
59493;BME280;45497;43.996;22.876;2023-01-28T12:06:56;101180.16;;;5.76;56.29
59493;BME280;45497;43.996;22.876;2023-01-28T12:09:38;101186.16;;;5.78;57.04
59493;BME280;45497;43.996;22.876;2023-01-28T12:15:08;101186.56;;;5.94;56.93
59493;BME280;45497;43.996;22.876;2023-01-28T12:23:38;101186.69;;;5.93;56.27
59493;BME280;45497;43.996;22.876;2023-01-28T12:26:18;101182.69;;;5.78;55.92
59493;BME280;45497;43.996;22.876;2023-01-28T12:36:55;101183.84;;;5.64;57.43
59493;BME280;45497;43.996;22.876;2023-01-28T12:41:59;101188.63;;;5.59;56.19
59493;BME280;45497;43.996;22.876;2023-01-28T12:44:32;101199.03;;;5.60;56.61
59493;BME280;45497;43.996;22.876;2023-01-28T12:47:12;101196.13;;;5.63;56.87
59493;BME280;45497;43.996;22.876;2023-01-28T12:52:54;101187.78;;;5.58;56.41
59493;BME280;45497;43.996;22.876;2023-01-28T12:56:03;101191.88;;;5.51;57.00
59493;BME280;45497;43.996;22.876;2023-01-28T13:01:39;101199.28;;;5.57;56.34
59493;BME280;45497;43.996;22.876;2023-01-28T13:10:01;101204.28;;;5.92;56.43
59493;BME280;45497;43.996;22.876;2023-01-28T13:12:29;101211.59;;;5.89;56.47
59493;BME280;45497;43.996;22.876;2023-01-28T13:14:56;101202.84;;;5.88;56.57
59493;BME280;45497;43.996;22.876;2023-01-28T13:17:28;101216.19;;;5.75;56.89
59493;BME280;45497;43.996;22.876;2023-01-28T13:19:55;101216.00;;;5.67;56.63
59493;BME280;45497;43.996;22.876;2023-01-28T13:22:30;101224.81;;;5.66;56.55
59493;BME280;45497;43.996;22.876;2023-01-28T13:25:10;101217.75;;;5.67;57.09
59493;BME280;45497;43.996;22.876;2023-01-28T13:27:36;101221.84;;;5.60;57.02
59493;BME280;45497;43.996;22.876;2023-01-28T13:30:27;101226.34;;;5.80;57.22
59493;BME280;45497;43.996;22.876;2023-01-28T13:33:01;101219.31;;;5.90;56.32
59493;BME280;45497;43.996;22.876;2023-01-28T13:35:36;101221.84;;;5.92;56.79
59493;BME280;45497;43.996;22.876;2023-01-28T13:38:07;101227.59;;;5.97;57.11
59493;BME280;45497;43.996;22.876;2023-01-28T13:40:33;101225.22;;;6.15;56.82
59493;BME280;45497;43.996;22.876;2023-01-28T13:43:03;101219.03;;;6.05;56.48
59493;BME280;45497;43.996;22.876;2023-01-28T13:45:30;101226.56;;;6.09;57.09
59493;BME280;45497;43.996;22.876;2023-01-28T13:48:28;101228.16;;;6.01;56.74
59493;BME280;45497;43.996;22.876;2023-01-28T13:50:56;101236.28;;;6.09;56.88
59493;BME280;45497;43.996;22.876;2023-01-28T13:53:43;101241.25;;;6.12;56.83
59493;BME280;45497;43.996;22.876;2023-01-28T13:59:27;101240.38;;;5.90;56.33
59493;BME280;45497;43.996;22.876;2023-01-28T14:02:07;101229.28;;;5.87;56.66
59493;BME280;45497;43.996;22.876;2023-01-28T14:10:27;101237.63;;;6.03;56.81
59493;BME280;45497;43.996;22.876;2023-01-28T14:16:24;101228.31;;;6.20;56.54
59493;BME280;45497;43.996;22.876;2023-01-28T14:18:58;101245.13;;;6.29;56.21
59493;BME280;45497;43.996;22.876;2023-01-28T14:21:26;101241.34;;;6.22;56.00
59493;BME280;45497;43.996;22.876;2023-01-28T14:23:54;101242.81;;;6.15;55.78
59493;BME280;45497;43.996;22.876;2023-01-28T14:29:30;101245.13;;;6.08;55.68
59493;BME280;45497;43.996;22.876;2023-01-28T14:32:02;101258.69;;;6.03;55.90
59493;BME280;45497;43.996;22.876;2023-01-28T14:34:31;101254.25;;;6.04;55.95
59493;BME280;45497;43.996;22.876;2023-01-28T14:37:16;101257.06;;;6.12;55.90
59493;BME280;45497;43.996;22.876;2023-01-28T14:42:16;101247.75;;;6.08;55.94
59493;BME280;45497;43.996;22.876;2023-01-28T14:44:43;101249.16;;;6.12;55.70
59493;BME280;45497;43.996;22.876;2023-01-28T14:58:39;101264.66;;;5.94;55.80
59493;BME280;45497;43.996;22.876;2023-01-28T15:01:27;101276.75;;;5.97;55.76
59493;BME280;45497;43.996;22.876;2023-01-28T15:03:53;101273.41;;;5.94;55.59